sensor_id;sensor_type;location;lat;lon;timestamp;temperature;humidity
21092;DHT22;10704;42.678;23.288;2023-03-21T00:01:12;10.80;99.90
21092;DHT22;10704;42.678;23.288;2023-03-21T00:03:39;10.80;99.90
21092;DHT22;10704;42.678;23.288;2023-03-21T00:06:07;10.80;99.90
21092;DHT22;10704;42.678;23.288;2023-03-21T00:08:33;10.70;99.90
21092;DHT22;10704;42.678;23.288;2023-03-21T00:11:01;10.60;99.90
21092;DHT22;10704;42.678;23.288;2023-03-21T00:13:28;10.60;99.90
21092;DHT22;10704;42.678;23.288;2023-03-21T00:16:08;10.60;99.90
21092;DHT22;10704;42.678;23.288;2023-03-21T00:18:35;10.60;99.90
21092;DHT22;10704;42.678;23.288;2023-03-21T00:21:04;10.60;99.90
21092;DHT22;10704;42.678;23.288;2023-03-21T00:23:31;10.60;99.90
21092;DHT22;10704;42.678;23.288;2023-03-21T00:25:58;10.60;99.90
21092;DHT22;10704;42.678;23.288;2023-03-21T00:28:25;10.60;99.90
21092;DHT22;10704;42.678;23.288;2023-03-21T00:30:59;10.50;99.90
21092;DHT22;10704;42.678;23.288;2023-03-21T00:33:26;10.40;99.90
21092;DHT22;10704;42.678;23.288;2023-03-21T00:35:52;10.50;99.90
21092;DHT22;10704;42.678;23.288;2023-03-21T00:38:19;10.50;99.90
21092;DHT22;10704;42.678;23.288;2023-03-21T00:40:46;10.50;99.90
21092;DHT22;10704;42.678;23.288;2023-03-21T00:43:12;10.60;99.90
21092;DHT22;10704;42.678;23.288;2023-03-21T00:45:42;10.50;99.90
21092;DHT22;10704;42.678;23.288;2023-03-21T00:48:09;10.50;99.90
21092;DHT22;10704;42.678;23.288;2023-03-21T00:50:36;10.40;99.90
21092;DHT22;10704;42.678;23.288;2023-03-21T00:53:03;10.40;99.90
21092;DHT22;10704;42.678;23.288;2023-03-21T00:55:29;10.30;99.90
21092;DHT22;10704;42.678;23.288;2023-03-21T00:57:55;10.30;99.90
21092;DHT22;10704;42.678;23.288;2023-03-21T01:00:23;10.30;99.90
21092;DHT22;10704;42.678;23.288;2023-03-21T01:02:49;10.30;99.90
21092;DHT22;10704;42.678;23.288;2023-03-21T01:05:23;10.20;99.90
21092;DHT22;10704;42.678;23.288;2023-03-21T01:08:13;10.20;99.90
21092;DHT22;10704;42.678;23.288;2023-03-21T01:10:42;10.10;99.90
21092;DHT22;10704;42.678;23.288;2023-03-21T01:13:10;10.10;99.90
21092;DHT22;10704;42.678;23.288;2023-03-21T01:15:37;10.00;99.90
21092;DHT22;10704;42.678;23.288;2023-03-21T01:18:07;10.00;99.90
21092;DHT22;10704;42.678;23.288;2023-03-21T01:20:33;10.00;99.90
21092;DHT22;10704;42.678;23.288;2023-03-21T01:22:59;10.00;99.90
21092;DHT22;10704;42.678;23.288;2023-03-21T01:25:25;10.00;99.90
21092;DHT22;10704;42.678;23.288;2023-03-21T01:27:51;10.00;99.90
21092;DHT22;10704;42.678;23.288;2023-03-21T01:30:19;10.00;99.90
21092;DHT22;10704;42.678;23.288;2023-03-21T01:32:46;10.00;99.90
21092;DHT22;10704;42.678;23.288;2023-03-21T01:35:11;9.90;99.90
21092;DHT22;10704;42.678;23.288;2023-03-21T01:37:37;9.90;99.90
21092;DHT22;10704;42.678;23.288;2023-03-21T01:40:04;9.90;99.90
21092;DHT22;10704;42.678;23.288;2023-03-21T01:42:30;9.90;99.90
21092;DHT22;10704;42.678;23.288;2023-03-21T01:45:00;9.90;99.90
21092;DHT22;10704;42.678;23.288;2023-03-21T01:47:44;9.90;99.90
21092;DHT22;10704;42.678;23.288;2023-03-21T01:50:21;9.80;99.90
21092;DHT22;10704;42.678;23.288;2023-03-21T01:53:00;9.80;99.90
21092;DHT22;10704;42.678;23.288;2023-03-21T01:55:30;9.80;99.90
21092;DHT22;10704;42.678;23.288;2023-03-21T01:58:01;9.80;99.90
21092;DHT22;10704;42.678;23.288;2023-03-21T02:00:29;9.80;99.90
21092;DHT22;10704;42.678;23.288;2023-03-21T02:03:09;9.80;99.90
21092;DHT22;10704;42.678;23.288;2023-03-21T02:08:23;9.70;99.90
21092;DHT22;10704;42.678;23.288;2023-03-21T02:10:50;9.70;99.90
21092;DHT22;10704;42.678;23.288;2023-03-21T02:13:27;9.60;99.90
21092;DHT22;10704;42.678;23.288;2023-03-21T02:21:59;9.70;99.90
21092;DHT22;10704;42.678;23.288;2023-03-21T02:27:24;9.70;99.90
21092;DHT22;10704;42.678;23.288;2023-03-21T02:38:10;9.60;99.90
21092;DHT22;10704;42.678;23.288;2023-03-21T02:46:17;9.70;99.90
21092;DHT22;10704;42.678;23.288;2023-03-21T02:51:47;9.40;99.90
21092;DHT22;10704;42.678;23.288;2023-03-21T02:54:17;9.40;99.90
21092;DHT22;10704;42.678;23.288;2023-03-21T02:56:46;9.20;99.90
21092;DHT22;10704;42.678;23.288;2023-03-21T02:59:15;9.10;99.90
21092;DHT22;10704;42.678;23.288;2023-03-21T03:01:42;9.00;99.90
21092;DHT22;10704;42.678;23.288;2023-03-21T03:04:22;9.00;99.90
21092;DHT22;10704;42.678;23.288;2023-03-21T03:07:10;9.00;99.90
21092;DHT22;10704;42.678;23.288;2023-03-21T03:12:40;9.00;99.90
21092;DHT22;10704;42.678;23.288;2023-03-21T03:18:09;8.90;99.90
21092;DHT22;10704;42.678;23.288;2023-03-21T03:20:59;8.90;99.90
21092;DHT22;10704;42.678;23.288;2023-03-21T03:28:48;8.80;99.90
21092;DHT22;10704;42.678;23.288;2023-03-21T03:31:21;8.80;99.90
21092;DHT22;10704;42.678;23.288;2023-03-21T03:33:55;8.70;99.90
21092;DHT22;10704;42.678;23.288;2023-03-21T03:36:29;8.70;99.90
21092;DHT22;10704;42.678;23.288;2023-03-21T03:39:07;8.80;99.90
21092;DHT22;10704;42.678;23.288;2023-03-21T03:41:45;8.80;99.90
21092;DHT22;10704;42.678;23.288;2023-03-21T03:44:12;8.60;99.90
21092;DHT22;10704;42.678;23.288;2023-03-21T03:47:03;8.60;99.90
21092;DHT22;10704;42.678;23.288;2023-03-21T03:49:47;8.60;99.90
21092;DHT22;10704;42.678;23.288;2023-03-21T03:52:21;8.60;99.90
21092;DHT22;10704;42.678;23.288;2023-03-21T03:54:57;8.60;99.90
21092;DHT22;10704;42.678;23.288;2023-03-21T03:57:25;8.60;99.90
21092;DHT22;10704;42.678;23.288;2023-03-21T03:59:53;8.60;99.90
21092;DHT22;10704;42.678;23.288;2023-03-21T04:02:25;8.60;99.90
21092;DHT22;10704;42.678;23.288;2023-03-21T04:04:51;8.70;99.90
21092;DHT22;10704;42.678;23.288;2023-03-21T04:07:20;8.90;99.90
21092;DHT22;10704;42.678;23.288;2023-03-21T04:09:47;8.70;99.90
21092;DHT22;10704;42.678;23.288;2023-03-21T04:12:16;8.60;99.90
21092;DHT22;10704;42.678;23.288;2023-03-21T04:14:56;8.50;99.90
21092;DHT22;10704;42.678;23.288;2023-03-21T04:17:22;8.40;99.90
21092;DHT22;10704;42.678;23.288;2023-03-21T04:19:48;8.40;99.90
21092;DHT22;10704;42.678;23.288;2023-03-21T04:22:18;8.30;99.90
21092;DHT22;10704;42.678;23.288;2023-03-21T04:24:43;8.40;99.90
21092;DHT22;10704;42.678;23.288;2023-03-21T04:27:10;8.40;99.90
21092;DHT22;10704;42.678;23.288;2023-03-21T04:29:40;8.30;99.90
21092;DHT22;10704;42.678;23.288;2023-03-21T04:32:36;8.20;99.90
21092;DHT22;10704;42.678;23.288;2023-03-21T04:35:11;8.30;99.90
21092;DHT22;10704;42.678;23.288;2023-03-21T04:37:37;8.30;99.90
21092;DHT22;10704;42.678;23.288;2023-03-21T04:40:05;8.40;99.90
21092;DHT22;10704;42.678;23.288;2023-03-21T04:42:35;8.30;99.90
21092;DHT22;10704;42.678;23.288;2023-03-21T04:45:01;8.40;99.90
21092;DHT22;10704;42.678;23.288;2023-03-21T04:47:27;8.40;99.90
21092;DHT22;10704;42.678;23.288;2023-03-21T04:49:54;8.40;99.90
21092;DHT22;10704;42.678;23.288;2023-03-21T04:52:22;8.40;99.90
21092;DHT22;10704;42.678;23.288;2023-03-21T04:54:48;8.40;99.90
21092;DHT22;10704;42.678;23.288;2023-03-21T04:57:14;8.40;99.90
21092;DHT22;10704;42.678;23.288;2023-03-21T04:59:42;8.50;99.90
21092;DHT22;10704;42.678;23.288;2023-03-21T05:02:07;8.50;99.90
21092;DHT22;10704;42.678;23.288;2023-03-21T05:04:33;8.70;99.90
21092;DHT22;10704;42.678;23.288;2023-03-21T05:06:59;8.80;99.90
21092;DHT22;10704;42.678;23.288;2023-03-21T05:09:25;8.70;99.90
21092;DHT22;10704;42.678;23.288;2023-03-21T05:11:52;8.90;99.90
21092;DHT22;10704;42.678;23.288;2023-03-21T05:14:21;9.00;99.90
21092;DHT22;10704;42.678;23.288;2023-03-21T05:16:48;9.00;99.90
21092;DHT22;10704;42.678;23.288;2023-03-21T05:19:20;9.10;99.90
21092;DHT22;10704;42.678;23.288;2023-03-21T05:21:49;9.20;99.90
21092;DHT22;10704;42.678;23.288;2023-03-21T05:24:20;9.30;99.90
21092;DHT22;10704;42.678;23.288;2023-03-21T05:26:48;9.10;99.90
21092;DHT22;10704;42.678;23.288;2023-03-21T05:29:20;9.00;99.90
21092;DHT22;10704;42.678;23.288;2023-03-21T05:31:58;9.10;99.90
21092;DHT22;10704;42.678;23.288;2023-03-21T05:34:25;9.10;99.90
21092;DHT22;10704;42.678;23.288;2023-03-21T05:36:52;9.20;99.90
21092;DHT22;10704;42.678;23.288;2023-03-21T05:39:19;9.30;99.90
21092;DHT22;10704;42.678;23.288;2023-03-21T05:41:56;9.50;99.90
21092;DHT22;10704;42.678;23.288;2023-03-21T05:44:23;9.50;99.90
21092;DHT22;10704;42.678;23.288;2023-03-21T05:46:51;9.60;99.90
21092;DHT22;10704;42.678;23.288;2023-03-21T05:49:20;9.70;99.90
21092;DHT22;10704;42.678;23.288;2023-03-21T05:51:47;9.80;99.90
21092;DHT22;10704;42.678;23.288;2023-03-21T05:54:13;9.90;99.90
21092;DHT22;10704;42.678;23.288;2023-03-21T05:56:42;10.00;99.90
21092;DHT22;10704;42.678;23.288;2023-03-21T05:59:11;10.20;99.90
21092;DHT22;10704;42.678;23.288;2023-03-21T06:01:41;10.30;99.90
21092;DHT22;10704;42.678;23.288;2023-03-21T06:04:12;10.40;99.90
21092;DHT22;10704;42.678;23.288;2023-03-21T06:06:39;10.60;99.90
21092;DHT22;10704;42.678;23.288;2023-03-21T06:09:05;10.70;99.90
21092;DHT22;10704;42.678;23.288;2023-03-21T06:11:34;10.70;99.90
21092;DHT22;10704;42.678;23.288;2023-03-21T06:14:24;10.80;99.90
21092;DHT22;10704;42.678;23.288;2023-03-21T06:17:23;11.00;99.90
21092;DHT22;10704;42.678;23.288;2023-03-21T06:19:57;11.00;99.90
21092;DHT22;10704;42.678;23.288;2023-03-21T06:22:32;11.20;99.90
21092;DHT22;10704;42.678;23.288;2023-03-21T06:24:59;11.30;99.90
21092;DHT22;10704;42.678;23.288;2023-03-21T06:27:26;11.50;99.90
21092;DHT22;10704;42.678;23.288;2023-03-21T06:29:54;11.60;99.90
21092;DHT22;10704;42.678;23.288;2023-03-21T06:32:21;11.70;99.90
21092;DHT22;10704;42.678;23.288;2023-03-21T06:34:51;11.90;99.90
21092;DHT22;10704;42.678;23.288;2023-03-21T06:37:17;11.90;99.90
21092;DHT22;10704;42.678;23.288;2023-03-21T06:39:43;12.10;99.90
21092;DHT22;10704;42.678;23.288;2023-03-21T06:42:09;12.30;99.90
21092;DHT22;10704;42.678;23.288;2023-03-21T06:44:36;12.30;99.90
21092;DHT22;10704;42.678;23.288;2023-03-21T06:47:06;12.40;99.90
21092;DHT22;10704;42.678;23.288;2023-03-21T06:49:32;12.50;99.90
21092;DHT22;10704;42.678;23.288;2023-03-21T06:52:06;12.50;99.90
21092;DHT22;10704;42.678;23.288;2023-03-21T06:54:32;12.50;99.90
21092;DHT22;10704;42.678;23.288;2023-03-21T06:57:02;12.70;99.90
21092;DHT22;10704;42.678;23.288;2023-03-21T06:59:32;12.90;99.90
21092;DHT22;10704;42.678;23.288;2023-03-21T07:02:18;13.00;99.90
21092;DHT22;10704;42.678;23.288;2023-03-21T07:04:57;13.20;99.90
21092;DHT22;10704;42.678;23.288;2023-03-21T07:07:26;13.20;99.60
21092;DHT22;10704;42.678;23.288;2023-03-21T07:09:54;13.40;99.10
21092;DHT22;10704;42.678;23.288;2023-03-21T07:12:22;13.70;98.40
21092;DHT22;10704;42.678;23.288;2023-03-21T07:15:23;13.80;97.60
21092;DHT22;10704;42.678;23.288;2023-03-21T07:17:50;13.90;96.50
21092;DHT22;10704;42.678;23.288;2023-03-21T07:20:16;14.00;96.30
21092;DHT22;10704;42.678;23.288;2023-03-21T07:22:42;13.90;95.10
21092;DHT22;10704;42.678;23.288;2023-03-21T07:25:08;13.90;95.30
21092;DHT22;10704;42.678;23.288;2023-03-21T07:27:38;13.90;94.90
21092;DHT22;10704;42.678;23.288;2023-03-21T07:30:05;13.90;95.10
21092;DHT22;10704;42.678;23.288;2023-03-21T07:32:33;13.90;94.40
21092;DHT22;10704;42.678;23.288;2023-03-21T07:34:59;14.10;93.70
21092;DHT22;10704;42.678;23.288;2023-03-21T07:37:26;14.20;93.40
21092;DHT22;10704;42.678;23.288;2023-03-21T07:39:51;14.30;93.00
21092;DHT22;10704;42.678;23.288;2023-03-21T07:42:18;14.30;92.30
21092;DHT22;10704;42.678;23.288;2023-03-21T07:44:44;14.50;92.10
21092;DHT22;10704;42.678;23.288;2023-03-21T07:47:10;14.50;91.80
21092;DHT22;10704;42.678;23.288;2023-03-21T07:49:36;14.50;91.60
21092;DHT22;10704;42.678;23.288;2023-03-21T07:52:03;14.70;91.40
21092;DHT22;10704;42.678;23.288;2023-03-21T07:54:29;14.90;90.80
21092;DHT22;10704;42.678;23.288;2023-03-21T07:56:55;15.00;90.30
21092;DHT22;10704;42.678;23.288;2023-03-21T07:59:22;14.70;90.40
21092;DHT22;10704;42.678;23.288;2023-03-21T08:01:48;14.50;91.00
21092;DHT22;10704;42.678;23.288;2023-03-21T08:04:14;14.60;91.10
21092;DHT22;10704;42.678;23.288;2023-03-21T08:06:40;14.60;90.80
21092;DHT22;10704;42.678;23.288;2023-03-21T08:09:06;14.60;91.50
21092;DHT22;10704;42.678;23.288;2023-03-21T08:11:32;14.70;91.00
21092;DHT22;10704;42.678;23.288;2023-03-21T08:13:59;14.70;90.60
21092;DHT22;10704;42.678;23.288;2023-03-21T08:16:26;14.50;90.70
21092;DHT22;10704;42.678;23.288;2023-03-21T08:18:52;14.70;90.90
21092;DHT22;10704;42.678;23.288;2023-03-21T08:21:18;15.00;90.10
21092;DHT22;10704;42.678;23.288;2023-03-21T08:23:44;14.90;89.30
21092;DHT22;10704;42.678;23.288;2023-03-21T08:26:10;14.80;90.00
21092;DHT22;10704;42.678;23.288;2023-03-21T08:28:36;14.80;90.20
21092;DHT22;10704;42.678;23.288;2023-03-21T08:31:08;14.80;89.00
21092;DHT22;10704;42.678;23.288;2023-03-21T08:33:34;14.90;88.60
21092;DHT22;10704;42.678;23.288;2023-03-21T08:36:01;15.10;87.70
21092;DHT22;10704;42.678;23.288;2023-03-21T08:38:27;15.30;87.70
21092;DHT22;10704;42.678;23.288;2023-03-21T08:40:55;15.50;86.70
21092;DHT22;10704;42.678;23.288;2023-03-21T08:43:21;15.50;85.60
21092;DHT22;10704;42.678;23.288;2023-03-21T08:45:48;15.40;86.20
21092;DHT22;10704;42.678;23.288;2023-03-21T08:48:14;15.30;85.60
21092;DHT22;10704;42.678;23.288;2023-03-21T08:50:40;15.30;86.60
21092;DHT22;10704;42.678;23.288;2023-03-21T08:53:06;15.50;87.40
21092;DHT22;10704;42.678;23.288;2023-03-21T08:55:32;15.70;84.90
21092;DHT22;10704;42.678;23.288;2023-03-21T08:57:59;15.60;84.10
21092;DHT22;10704;42.678;23.288;2023-03-21T09:00:25;15.80;82.90
21092;DHT22;10704;42.678;23.288;2023-03-21T09:02:52;15.90;82.00
21092;DHT22;10704;42.678;23.288;2023-03-21T09:05:19;16.00;82.30
21092;DHT22;10704;42.678;23.288;2023-03-21T09:07:46;16.10;82.00
21092;DHT22;10704;42.678;23.288;2023-03-21T09:10:15;16.10;81.70
21092;DHT22;10704;42.678;23.288;2023-03-21T09:12:41;16.00;81.80
21092;DHT22;10704;42.678;23.288;2023-03-21T09:15:09;15.90;81.70
21092;DHT22;10704;42.678;23.288;2023-03-21T09:17:37;15.90;82.00
21092;DHT22;10704;42.678;23.288;2023-03-21T09:20:09;16.10;81.20
21092;DHT22;10704;42.678;23.288;2023-03-21T09:22:39;16.10;81.80
21092;DHT22;10704;42.678;23.288;2023-03-21T09:25:05;16.00;81.10
21092;DHT22;10704;42.678;23.288;2023-03-21T09:27:33;16.20;80.90
21092;DHT22;10704;42.678;23.288;2023-03-21T09:29:59;16.30;80.30
21092;DHT22;10704;42.678;23.288;2023-03-21T09:32:25;16.50;80.40
21092;DHT22;10704;42.678;23.288;2023-03-21T09:34:52;16.70;79.10
21092;DHT22;10704;42.678;23.288;2023-03-21T09:37:20;16.90;78.50
21092;DHT22;10704;42.678;23.288;2023-03-21T09:39:46;17.00;77.60
21092;DHT22;10704;42.678;23.288;2023-03-21T09:47:28;17.10;76.30
21092;DHT22;10704;42.678;23.288;2023-03-21T09:55:22;16.90;76.00
21092;DHT22;10704;42.678;23.288;2023-03-21T10:00:29;17.10;74.70
21092;DHT22;10704;42.678;23.288;2023-03-21T10:02:59;17.10;74.70
21092;DHT22;10704;42.678;23.288;2023-03-21T10:05:32;17.30;73.90
21092;DHT22;10704;42.678;23.288;2023-03-21T10:08:00;17.40;73.10
21092;DHT22;10704;42.678;23.288;2023-03-21T10:10:44;17.50;72.80
21092;DHT22;10704;42.678;23.288;2023-03-21T10:13:24;17.70;72.20
21092;DHT22;10704;42.678;23.288;2023-03-21T10:18:48;19.50;68.70
21092;DHT22;10704;42.678;23.288;2023-03-21T10:21:22;20.80;64.20
21092;DHT22;10704;42.678;23.288;2023-03-21T10:23:54;21.90;60.50
21092;DHT22;10704;42.678;23.288;2023-03-21T10:26:24;22.60;57.20
21092;DHT22;10704;42.678;23.288;2023-03-21T10:28:54;23.50;54.60
21092;DHT22;10704;42.678;23.288;2023-03-21T10:31:25;24.00;51.90
21092;DHT22;10704;42.678;23.288;2023-03-21T10:33:56;24.30;50.10
21092;DHT22;10704;42.678;23.288;2023-03-21T10:36:25;24.20;49.60
21092;DHT22;10704;42.678;23.288;2023-03-21T10:39:07;23.90;49.20
21092;DHT22;10704;42.678;23.288;2023-03-21T10:41:37;23.20;50.20
21092;DHT22;10704;42.678;23.288;2023-03-21T10:44:17;23.00;50.20
21092;DHT22;10704;42.678;23.288;2023-03-21T10:46:55;22.20;52.00
21092;DHT22;10704;42.678;23.288;2023-03-21T10:49:22;22.90;51.00
21092;DHT22;10704;42.678;23.288;2023-03-21T10:52:00;23.10;50.40
21092;DHT22;10704;42.678;23.288;2023-03-21T10:54:33;22.30;50.70
21092;DHT22;10704;42.678;23.288;2023-03-21T10:57:12;21.70;51.70
21092;DHT22;10704;42.678;23.288;2023-03-21T10:59:59;21.60;52.70
21092;DHT22;10704;42.678;23.288;2023-03-21T11:02:30;21.70;52.90
21092;DHT22;10704;42.678;23.288;2023-03-21T11:05:36;21.90;52.40
21092;DHT22;10704;42.678;23.288;2023-03-21T11:08:11;21.40;52.80
21092;DHT22;10704;42.678;23.288;2023-03-21T11:11:04;21.10;53.20
21092;DHT22;10704;42.678;23.288;2023-03-21T11:13:40;20.80;53.10
21092;DHT22;10704;42.678;23.288;2023-03-21T11:16:17;20.60;52.90
21092;DHT22;10704;42.678;23.288;2023-03-21T11:18:49;20.80;52.70
21092;DHT22;10704;42.678;23.288;2023-03-21T11:21:15;21.20;52.00
21092;DHT22;10704;42.678;23.288;2023-03-21T11:23:44;21.60;51.40
21092;DHT22;10704;42.678;23.288;2023-03-21T11:26:39;21.40;51.40
21092;DHT22;10704;42.678;23.288;2023-03-21T11:32:35;23.00;49.70
21092;DHT22;10704;42.678;23.288;2023-03-21T11:35:20;23.20;48.50
21092;DHT22;10704;42.678;23.288;2023-03-21T11:37:53;23.20;48.40
21092;DHT22;10704;42.678;23.288;2023-03-21T11:40:31;23.00;48.70
21092;DHT22;10704;42.678;23.288;2023-03-21T11:45:27;22.30;49.10
21092;DHT22;10704;42.678;23.288;2023-03-21T11:47:56;22.20;49.10
21092;DHT22;10704;42.678;23.288;2023-03-21T11:50:30;21.70;49.80
21092;DHT22;10704;42.678;23.288;2023-03-21T12:10:06;21.40;50.00
21092;DHT22;10704;42.678;23.288;2023-03-21T12:12:49;20.90;50.00
21092;DHT22;10704;42.678;23.288;2023-03-21T12:15:23;20.70;50.60
21092;DHT22;10704;42.678;23.288;2023-03-21T12:18:28;20.70;51.40
21092;DHT22;10704;42.678;23.288;2023-03-21T12:39:47;19.80;52.10
21092;DHT22;10704;42.678;23.288;2023-03-21T12:45:10;19.90;52.20
21092;DHT22;10704;42.678;23.288;2023-03-21T12:47:40;20.10;51.80
21092;DHT22;10704;42.678;23.288;2023-03-21T12:50:24;20.00;51.60
21092;DHT22;10704;42.678;23.288;2023-03-21T12:52:55;20.10;51.50
21092;DHT22;10704;42.678;23.288;2023-03-21T12:55:27;20.10;51.70
21092;DHT22;10704;42.678;23.288;2023-03-21T12:58:03;20.00;51.80
21092;DHT22;10704;42.678;23.288;2023-03-21T13:03:05;19.70;52.40
21092;DHT22;10704;42.678;23.288;2023-03-21T13:05:43;19.70;52.30
21092;DHT22;10704;42.678;23.288;2023-03-21T13:08:18;19.60;52.40
21092;DHT22;10704;42.678;23.288;2023-03-21T13:10:47;19.50;52.60
21092;DHT22;10704;42.678;23.288;2023-03-21T13:13:38;19.40;53.00
21092;DHT22;10704;42.678;23.288;2023-03-21T13:24:47;18.90;53.50
21092;DHT22;10704;42.678;23.288;2023-03-21T13:30:17;18.90;54.10
21092;DHT22;10704;42.678;23.288;2023-03-21T13:32:46;18.90;54.10
21092;DHT22;10704;42.678;23.288;2023-03-21T13:35:32;18.90;54.30
21092;DHT22;10704;42.678;23.288;2023-03-21T13:40:36;18.70;54.60
21092;DHT22;10704;42.678;23.288;2023-03-21T13:43:02;18.70;55.00
21092;DHT22;10704;42.678;23.288;2023-03-21T13:45:45;18.60;55.10
21092;DHT22;10704;42.678;23.288;2023-03-21T13:48:27;18.60;55.20
21092;DHT22;10704;42.678;23.288;2023-03-21T13:51:04;18.70;55.20
21092;DHT22;10704;42.678;23.288;2023-03-21T13:53:35;18.60;55.60
21092;DHT22;10704;42.678;23.288;2023-03-21T14:01:24;18.50;56.10
21092;DHT22;10704;42.678;23.288;2023-03-21T14:09:21;18.30;57.70
21092;DHT22;10704;42.678;23.288;2023-03-21T14:11:51;18.10;58.20
21092;DHT22;10704;42.678;23.288;2023-03-21T14:14:19;18.20;58.30
21092;DHT22;10704;42.678;23.288;2023-03-21T14:16:46;18.10;58.50
21092;DHT22;10704;42.678;23.288;2023-03-21T14:19:12;18.00;59.00
21092;DHT22;10704;42.678;23.288;2023-03-21T14:21:49;17.90;59.40
21092;DHT22;10704;42.678;23.288;2023-03-21T14:24:17;17.80;59.90
21092;DHT22;10704;42.678;23.288;2023-03-21T14:26:49;17.80;60.00
21092;DHT22;10704;42.678;23.288;2023-03-21T14:29:25;17.70;60.50
21092;DHT22;10704;42.678;23.288;2023-03-21T14:31:54;17.80;60.90
21092;DHT22;10704;42.678;23.288;2023-03-21T14:34:22;17.70;61.10
21092;DHT22;10704;42.678;23.288;2023-03-21T14:36:48;17.60;61.80
21092;DHT22;10704;42.678;23.288;2023-03-21T14:41:54;17.20;65.50
21092;DHT22;10704;42.678;23.288;2023-03-21T14:44:33;17.10;68.00
21092;DHT22;10704;42.678;23.288;2023-03-21T14:47:15;17.00;71.70
21092;DHT22;10704;42.678;23.288;2023-03-21T14:49:41;16.90;76.10
21092;DHT22;10704;42.678;23.288;2023-03-21T14:52:13;16.80;78.40
21092;DHT22;10704;42.678;23.288;2023-03-21T14:54:44;16.80;80.60
21092;DHT22;10704;42.678;23.288;2023-03-21T14:57:19;16.60;83.10
21092;DHT22;10704;42.678;23.288;2023-03-21T14:59:49;16.40;85.40
21092;DHT22;10704;42.678;23.288;2023-03-21T15:02:20;16.10;89.20
21092;DHT22;10704;42.678;23.288;2023-03-21T15:04:56;15.80;90.80
21092;DHT22;10704;42.678;23.288;2023-03-21T15:07:31;15.60;90.20
21092;DHT22;10704;42.678;23.288;2023-03-21T15:10:00;15.50;94.00
21092;DHT22;10704;42.678;23.288;2023-03-21T15:12:29;15.50;95.40
21092;DHT22;10704;42.678;23.288;2023-03-21T15:14:55;15.50;96.30
21092;DHT22;10704;42.678;23.288;2023-03-21T15:17:23;15.40;97.20
21092;DHT22;10704;42.678;23.288;2023-03-21T15:19:50;15.30;97.10
21092;DHT22;10704;42.678;23.288;2023-03-21T15:22:38;15.40;98.80
21092;DHT22;10704;42.678;23.288;2023-03-21T15:25:07;15.30;99.90
21092;DHT22;10704;42.678;23.288;2023-03-21T15:27:41;15.20;99.90
21092;DHT22;10704;42.678;23.288;2023-03-21T15:30:27;15.00;99.90
21092;DHT22;10704;42.678;23.288;2023-03-21T15:32:55;14.80;99.90
21092;DHT22;10704;42.678;23.288;2023-03-21T15:35:25;14.70;99.90
21092;DHT22;10704;42.678;23.288;2023-03-21T15:37:54;14.50;99.90
21092;DHT22;10704;42.678;23.288;2023-03-21T15:40:29;14.60;99.90
21092;DHT22;10704;42.678;23.288;2023-03-21T15:43:14;14.60;99.90
21092;DHT22;10704;42.678;23.288;2023-03-21T15:45:52;14.50;99.90
21092;DHT22;10704;42.678;23.288;2023-03-21T15:48:25;14.30;99.90
21092;DHT22;10704;42.678;23.288;2023-03-21T15:51:04;14.30;99.90
21092;DHT22;10704;42.678;23.288;2023-03-21T15:53:35;14.00;99.90
21092;DHT22;10704;42.678;23.288;2023-03-21T15:56:03;13.90;99.90
21092;DHT22;10704;42.678;23.288;2023-03-21T15:58:36;13.80;99.90
21092;DHT22;10704;42.678;23.288;2023-03-21T16:01:05;13.70;99.90
21092;DHT22;10704;42.678;23.288;2023-03-21T16:03:34;13.50;99.90
21092;DHT22;10704;42.678;23.288;2023-03-21T16:08:35;12.90;99.90
21092;DHT22;10704;42.678;23.288;2023-03-21T16:13:50;12.30;99.90
21092;DHT22;10704;42.678;23.288;2023-03-21T16:16:25;11.80;99.90
21092;DHT22;10704;42.678;23.288;2023-03-21T16:18:54;11.70;99.90
21092;DHT22;10704;42.678;23.288;2023-03-21T16:21:25;11.50;99.90
21092;DHT22;10704;42.678;23.288;2023-03-21T16:23:52;11.50;99.90
21092;DHT22;10704;42.678;23.288;2023-03-21T16:26:25;11.30;99.90
21092;DHT22;10704;42.678;23.288;2023-03-21T16:28:51;11.30;99.90
21092;DHT22;10704;42.678;23.288;2023-03-21T16:31:22;11.30;99.90
21092;DHT22;10704;42.678;23.288;2023-03-21T16:33:49;11.30;99.90
21092;DHT22;10704;42.678;23.288;2023-03-21T16:36:27;11.50;99.90
21092;DHT22;10704;42.678;23.288;2023-03-21T16:38:54;11.50;99.90
21092;DHT22;10704;42.678;23.288;2023-03-21T16:41:22;11.60;99.90
21092;DHT22;10704;42.678;23.288;2023-03-21T16:43:48;11.40;99.90
21092;DHT22;10704;42.678;23.288;2023-03-21T16:46:17;11.40;99.90
21092;DHT22;10704;42.678;23.288;2023-03-21T16:48:46;11.60;99.90
21092;DHT22;10704;42.678;23.288;2023-03-21T16:51:20;11.70;99.90
21092;DHT22;10704;42.678;23.288;2023-03-21T16:53:47;11.80;99.90
21092;DHT22;10704;42.678;23.288;2023-03-21T16:56:17;11.70;99.90
21092;DHT22;10704;42.678;23.288;2023-03-21T16:58:44;11.70;99.90
21092;DHT22;10704;42.678;23.288;2023-03-21T17:01:18;11.70;99.90
21092;DHT22;10704;42.678;23.288;2023-03-21T17:03:45;11.70;99.90
21092;DHT22;10704;42.678;23.288;2023-03-21T17:06:16;11.50;99.90
21092;DHT22;10704;42.678;23.288;2023-03-21T17:08:43;11.50;99.90
21092;DHT22;10704;42.678;23.288;2023-03-21T17:11:14;11.40;99.90
21092;DHT22;10704;42.678;23.288;2023-03-21T17:13:45;11.40;99.90
21092;DHT22;10704;42.678;23.288;2023-03-21T17:16:13;11.20;99.90
21092;DHT22;10704;42.678;23.288;2023-03-21T17:18:39;11.20;99.90
21092;DHT22;10704;42.678;23.288;2023-03-21T17:21:11;11.20;99.90
21092;DHT22;10704;42.678;23.288;2023-03-21T17:23:38;11.20;99.90
21092;DHT22;10704;42.678;23.288;2023-03-21T17:26:04;11.20;99.90
21092;DHT22;10704;42.678;23.288;2023-03-21T17:28:30;11.10;99.90
21092;DHT22;10704;42.678;23.288;2023-03-21T17:30:56;11.10;99.90
21092;DHT22;10704;42.678;23.288;2023-03-21T17:33:22;11.10;99.90
21092;DHT22;10704;42.678;23.288;2023-03-21T17:35:48;11.10;99.90
21092;DHT22;10704;42.678;23.288;2023-03-21T17:38:15;11.10;99.90
21092;DHT22;10704;42.678;23.288;2023-03-21T17:40:42;11.10;99.90
21092;DHT22;10704;42.678;23.288;2023-03-21T17:43:14;11.00;99.90
21092;DHT22;10704;42.678;23.288;2023-03-21T17:45:42;11.00;99.90
21092;DHT22;10704;42.678;23.288;2023-03-21T17:48:08;10.90;99.90
21092;DHT22;10704;42.678;23.288;2023-03-21T17:50:34;10.80;99.90
21092;DHT22;10704;42.678;23.288;2023-03-21T17:53:05;10.70;99.90
21092;DHT22;10704;42.678;23.288;2023-03-21T17:55:33;10.70;99.90
21092;DHT22;10704;42.678;23.288;2023-03-21T17:58:00;10.70;99.90